sensor_id;sensor_type;location;lat;lon;timestamp;temperature;humidity
19930;DHT22;10127;47.780;9.606;2022-12-18T00:03:53;-1.80;99.90
19930;DHT22;10127;47.780;9.606;2022-12-18T00:06:20;-2.00;99.90
19930;DHT22;10127;47.780;9.606;2022-12-18T00:08:46;-2.10;99.90
19930;DHT22;10127;47.780;9.606;2022-12-18T00:11:17;-2.00;99.90
19930;DHT22;10127;47.780;9.606;2022-12-18T00:13:43;-2.10;99.90
19930;DHT22;10127;47.780;9.606;2022-12-18T00:16:11;-2.10;99.90
19930;DHT22;10127;47.780;9.606;2022-12-18T00:18:37;-2.30;99.90
19930;DHT22;10127;47.780;9.606;2022-12-18T00:21:06;-2.20;99.90
19930;DHT22;10127;47.780;9.606;2022-12-18T00:23:34;-2.30;99.90
19930;DHT22;10127;47.780;9.606;2022-12-18T00:26:05;-2.10;99.90
19930;DHT22;10127;47.780;9.606;2022-12-18T00:28:32;-2.20;99.90
19930;DHT22;10127;47.780;9.606;2022-12-18T00:31:09;-2.10;99.90
19930;DHT22;10127;47.780;9.606;2022-12-18T00:33:36;-2.00;99.90
19930;DHT22;10127;47.780;9.606;2022-12-18T00:36:07;-2.10;99.90
19930;DHT22;10127;47.780;9.606;2022-12-18T00:38:33;-2.00;99.90
19930;DHT22;10127;47.780;9.606;2022-12-18T00:40:59;-1.90;99.90
19930;DHT22;10127;47.780;9.606;2022-12-18T00:43:25;-2.00;99.90
19930;DHT22;10127;47.780;9.606;2022-12-18T00:45:50;-2.10;99.90
19930;DHT22;10127;47.780;9.606;2022-12-18T00:48:16;-2.10;99.90
19930;DHT22;10127;47.780;9.606;2022-12-18T00:50:42;-2.30;99.90
19930;DHT22;10127;47.780;9.606;2022-12-18T00:53:11;-2.20;99.90
19930;DHT22;10127;47.780;9.606;2022-12-18T00:55:40;-2.10;99.90
19930;DHT22;10127;47.780;9.606;2022-12-18T00:58:06;-2.30;99.90
19930;DHT22;10127;47.780;9.606;2022-12-18T01:00:31;-2.30;99.90
19930;DHT22;10127;47.780;9.606;2022-12-18T01:02:57;-2.30;99.90
19930;DHT22;10127;47.780;9.606;2022-12-18T01:05:22;-2.30;99.90
19930;DHT22;10127;47.780;9.606;2022-12-18T01:07:48;-2.20;99.90
19930;DHT22;10127;47.780;9.606;2022-12-18T01:10:14;-2.10;99.90
19930;DHT22;10127;47.780;9.606;2022-12-18T01:12:39;-2.00;99.90
19930;DHT22;10127;47.780;9.606;2022-12-18T01:15:06;-2.10;99.90
19930;DHT22;10127;47.780;9.606;2022-12-18T01:17:32;-2.00;99.90
19930;DHT22;10127;47.780;9.606;2022-12-18T01:19:58;-2.10;99.90
19930;DHT22;10127;47.780;9.606;2022-12-18T01:22:24;-2.20;99.90
19930;DHT22;10127;47.780;9.606;2022-12-18T01:24:50;-2.10;99.90
19930;DHT22;10127;47.780;9.606;2022-12-18T01:27:15;-2.10;99.90
19930;DHT22;10127;47.780;9.606;2022-12-18T01:29:41;-2.00;99.90
19930;DHT22;10127;47.780;9.606;2022-12-18T01:32:06;-2.10;99.90
19930;DHT22;10127;47.780;9.606;2022-12-18T01:34:32;-2.10;99.90
19930;DHT22;10127;47.780;9.606;2022-12-18T01:36:58;-2.10;99.90
19930;DHT22;10127;47.780;9.606;2022-12-18T01:39:23;-2.30;99.90
19930;DHT22;10127;47.780;9.606;2022-12-18T01:41:49;-2.20;99.90
19930;DHT22;10127;47.780;9.606;2022-12-18T01:47:33;-2.20;99.90
19930;DHT22;10127;47.780;9.606;2022-12-18T01:50:07;-2.10;99.90
19930;DHT22;10127;47.780;9.606;2022-12-18T01:52:33;-2.10;99.90
19930;DHT22;10127;47.780;9.606;2022-12-18T01:55:00;-2.20;99.90
19930;DHT22;10127;47.780;9.606;2022-12-18T01:57:28;-2.20;99.90
19930;DHT22;10127;47.780;9.606;2022-12-18T01:59:59;-2.20;99.90
19930;DHT22;10127;47.780;9.606;2022-12-18T02:02:27;-2.20;99.90
19930;DHT22;10127;47.780;9.606;2022-12-18T02:04:53;-2.20;99.90
19930;DHT22;10127;47.780;9.606;2022-12-18T02:10:26;-2.30;99.90
19930;DHT22;10127;47.780;9.606;2022-12-18T02:15:40;-2.30;99.90
19930;DHT22;10127;47.780;9.606;2022-12-18T02:18:12;-2.40;99.90
19930;DHT22;10127;47.780;9.606;2022-12-18T02:20:44;-2.30;99.90
19930;DHT22;10127;47.780;9.606;2022-12-18T02:26:20;-2.30;99.90
19930;DHT22;10127;47.780;9.606;2022-12-18T02:29:00;-2.20;99.90
19930;DHT22;10127;47.780;9.606;2022-12-18T02:31:34;-2.30;99.90
19930;DHT22;10127;47.780;9.606;2022-12-18T02:34:03;-2.30;99.90
19930;DHT22;10127;47.780;9.606;2022-12-18T02:36:31;-2.30;99.90
19930;DHT22;10127;47.780;9.606;2022-12-18T02:38:58;-2.30;99.90
19930;DHT22;10127;47.780;9.606;2022-12-18T02:41:25;-2.10;99.90
19930;DHT22;10127;47.780;9.606;2022-12-18T02:44:01;-2.40;99.90
19930;DHT22;10127;47.780;9.606;2022-12-18T02:46:32;-2.60;99.90
19930;DHT22;10127;47.780;9.606;2022-12-18T03:12:36;-2.50;99.90
19930;DHT22;10127;47.780;9.606;2022-12-18T03:17:39;-2.30;99.90
19930;DHT22;10127;47.780;9.606;2022-12-18T03:20:12;-2.40;99.90
19930;DHT22;10127;47.780;9.606;2022-12-18T03:22:38;-2.40;99.90
19930;DHT22;10127;47.780;9.606;2022-12-18T03:25:08;-2.40;99.90
19930;DHT22;10127;47.780;9.606;2022-12-18T03:27:38;-2.50;99.90
19930;DHT22;10127;47.780;9.606;2022-12-18T03:30:08;-2.50;99.90
19930;DHT22;10127;47.780;9.606;2022-12-18T03:32:56;-2.60;99.90
19930;DHT22;10127;47.780;9.606;2022-12-18T03:35:28;-2.40;99.90
19930;DHT22;10127;47.780;9.606;2022-12-18T03:37:55;-2.40;99.90
19930;DHT22;10127;47.780;9.606;2022-12-18T03:40:26;-2.60;99.90
19930;DHT22;10127;47.780;9.606;2022-12-18T03:43:08;-2.50;99.90
19930;DHT22;10127;47.780;9.606;2022-12-18T03:45:44;-2.60;99.90
19930;DHT22;10127;47.780;9.606;2022-12-18T03:48:31;-2.50;99.90
19930;DHT22;10127;47.780;9.606;2022-12-18T03:51:06;-2.50;99.90
19930;DHT22;10127;47.780;9.606;2022-12-18T03:53:48;-2.50;99.90
19930;DHT22;10127;47.780;9.606;2022-12-18T03:56:16;-2.60;99.90
19930;DHT22;10127;47.780;9.606;2022-12-18T03:58:44;-2.60;99.90
19930;DHT22;10127;47.780;9.606;2022-12-18T04:01:13;-2.50;99.90
19930;DHT22;10127;47.780;9.606;2022-12-18T04:03:41;-2.40;99.90
19930;DHT22;10127;47.780;9.606;2022-12-18T04:06:08;-2.50;99.90
19930;DHT22;10127;47.780;9.606;2022-12-18T04:08:35;-2.70;99.90
19930;DHT22;10127;47.780;9.606;2022-12-18T04:11:02;-2.70;99.90
19930;DHT22;10127;47.780;9.606;2022-12-18T04:13:30;-2.60;99.90
19930;DHT22;10127;47.780;9.606;2022-12-18T04:15:57;-2.70;99.90
19930;DHT22;10127;47.780;9.606;2022-12-18T04:18:22;-2.80;99.90
19930;DHT22;10127;47.780;9.606;2022-12-18T04:20:48;-2.60;99.90
19930;DHT22;10127;47.780;9.606;2022-12-18T04:23:13;-2.50;99.90
19930;DHT22;10127;47.780;9.606;2022-12-18T04:25:39;-2.40;99.90
19930;DHT22;10127;47.780;9.606;2022-12-18T04:28:05;-2.50;99.90
19930;DHT22;10127;47.780;9.606;2022-12-18T04:30:31;-2.70;99.90
19930;DHT22;10127;47.780;9.606;2022-12-18T04:32:56;-2.60;99.90
19930;DHT22;10127;47.780;9.606;2022-12-18T04:35:22;-2.50;99.90
19930;DHT22;10127;47.780;9.606;2022-12-18T04:37:47;-2.50;99.90
19930;DHT22;10127;47.780;9.606;2022-12-18T04:40:13;-2.50;99.90
19930;DHT22;10127;47.780;9.606;2022-12-18T04:42:39;-2.40;99.90
19930;DHT22;10127;47.780;9.606;2022-12-18T04:45:06;-2.50;99.90
19930;DHT22;10127;47.780;9.606;2022-12-18T04:47:32;-2.30;99.90
19930;DHT22;10127;47.780;9.606;2022-12-18T04:49:57;-2.30;99.90
19930;DHT22;10127;47.780;9.606;2022-12-18T04:52:23;-2.30;99.90
19930;DHT22;10127;47.780;9.606;2022-12-18T04:54:49;-2.30;99.90
19930;DHT22;10127;47.780;9.606;2022-12-18T04:57:14;-2.20;99.90
19930;DHT22;10127;47.780;9.606;2022-12-18T04:59:40;-2.20;99.90
19930;DHT22;10127;47.780;9.606;2022-12-18T05:02:06;-2.40;99.90
19930;DHT22;10127;47.780;9.606;2022-12-18T05:04:31;-2.40;99.90
19930;DHT22;10127;47.780;9.606;2022-12-18T05:06:57;-2.50;99.90
19930;DHT22;10127;47.780;9.606;2022-12-18T05:09:23;-2.60;99.90
19930;DHT22;10127;47.780;9.606;2022-12-18T05:11:48;-2.80;99.90
19930;DHT22;10127;47.780;9.606;2022-12-18T05:14:14;-2.80;99.90
19930;DHT22;10127;47.780;9.606;2022-12-18T05:16:40;-2.60;99.90
19930;DHT22;10127;47.780;9.606;2022-12-18T05:19:06;-2.40;99.90
19930;DHT22;10127;47.780;9.606;2022-12-18T05:21:31;-2.30;99.90
19930;DHT22;10127;47.780;9.606;2022-12-18T05:23:57;-2.40;99.90
19930;DHT22;10127;47.780;9.606;2022-12-18T05:26:22;-2.30;99.90
19930;DHT22;10127;47.780;9.606;2022-12-18T05:28:48;-2.40;99.90
19930;DHT22;10127;47.780;9.606;2022-12-18T05:31:14;-2.40;99.90
19930;DHT22;10127;47.780;9.606;2022-12-18T05:33:40;-2.60;99.90
19930;DHT22;10127;47.780;9.606;2022-12-18T05:36:07;-2.60;99.90
19930;DHT22;10127;47.780;9.606;2022-12-18T05:38:35;-2.60;99.90
19930;DHT22;10127;47.780;9.606;2022-12-18T05:41:01;-2.60;99.90
19930;DHT22;10127;47.780;9.606;2022-12-18T05:43:27;-2.70;99.90
19930;DHT22;10127;47.780;9.606;2022-12-18T05:45:54;-2.60;99.90
19930;DHT22;10127;47.780;9.606;2022-12-18T05:48:20;-2.70;99.90
19930;DHT22;10127;47.780;9.606;2022-12-18T05:50:47;-2.70;99.90
19930;DHT22;10127;47.780;9.606;2022-12-18T05:53:18;-2.60;99.90
19930;DHT22;10127;47.780;9.606;2022-12-18T05:55:44;-2.60;99.90
19930;DHT22;10127;47.780;9.606;2022-12-18T05:58:11;-2.50;99.90
19930;DHT22;10127;47.780;9.606;2022-12-18T06:00:39;-2.30;99.90
19930;DHT22;10127;47.780;9.606;2022-12-18T06:03:06;-2.60;99.90
19930;DHT22;10127;47.780;9.606;2022-12-18T06:05:39;-2.70;99.90
19930;DHT22;10127;47.780;9.606;2022-12-18T06:08:05;-2.60;99.90
19930;DHT22;10127;47.780;9.606;2022-12-18T06:10:31;-2.50;99.90
19930;DHT22;10127;47.780;9.606;2022-12-18T06:12:57;-2.40;99.90
19930;DHT22;10127;47.780;9.606;2022-12-18T06:15:23;-2.40;99.90
19930;DHT22;10127;47.780;9.606;2022-12-18T06:17:49;-2.50;99.90
19930;DHT22;10127;47.780;9.606;2022-12-18T06:20:15;-2.40;99.90
19930;DHT22;10127;47.780;9.606;2022-12-18T06:22:41;-2.20;99.90
19930;DHT22;10127;47.780;9.606;2022-12-18T06:25:07;-2.10;99.90
19930;DHT22;10127;47.780;9.606;2022-12-18T06:27:32;-1.90;99.90
19930;DHT22;10127;47.780;9.606;2022-12-18T06:29:59;-2.20;99.90
19930;DHT22;10127;47.780;9.606;2022-12-18T06:32:25;-2.40;99.90
19930;DHT22;10127;47.780;9.606;2022-12-18T06:34:51;-2.80;99.90
19930;DHT22;10127;47.780;9.606;2022-12-18T06:37:16;-2.90;99.90
19930;DHT22;10127;47.780;9.606;2022-12-18T06:39:42;-2.90;99.90
19930;DHT22;10127;47.780;9.606;2022-12-18T06:42:07;-2.90;99.90
19930;DHT22;10127;47.780;9.606;2022-12-18T06:44:33;-2.90;99.90
19930;DHT22;10127;47.780;9.606;2022-12-18T06:46:59;-2.60;99.90
19930;DHT22;10127;47.780;9.606;2022-12-18T06:49:24;-2.60;99.90
19930;DHT22;10127;47.780;9.606;2022-12-18T06:51:50;-2.60;99.90
19930;DHT22;10127;47.780;9.606;2022-12-18T06:54:15;-2.70;99.90
19930;DHT22;10127;47.780;9.606;2022-12-18T06:56:41;-2.90;99.90
19930;DHT22;10127;47.780;9.606;2022-12-18T06:59:07;-3.10;99.90
19930;DHT22;10127;47.780;9.606;2022-12-18T07:01:32;-3.00;99.90
19930;DHT22;10127;47.780;9.606;2022-12-18T07:03:58;-3.00;99.90
19930;DHT22;10127;47.780;9.606;2022-12-18T07:06:25;-2.80;99.90
19930;DHT22;10127;47.780;9.606;2022-12-18T07:08:53;-2.60;99.90
19930;DHT22;10127;47.780;9.606;2022-12-18T07:11:19;-2.60;99.90
19930;DHT22;10127;47.780;9.606;2022-12-18T07:13:45;-2.60;99.90
19930;DHT22;10127;47.780;9.606;2022-12-18T07:16:16;-2.70;99.90
19930;DHT22;10127;47.780;9.606;2022-12-18T07:18:42;-2.60;99.90
19930;DHT22;10127;47.780;9.606;2022-12-18T07:21:13;-2.50;99.90
19930;DHT22;10127;47.780;9.606;2022-12-18T07:23:39;-2.70;99.90
19930;DHT22;10127;47.780;9.606;2022-12-18T07:26:06;-2.80;99.90
19930;DHT22;10127;47.780;9.606;2022-12-18T07:28:33;-2.70;99.90
19930;DHT22;10127;47.780;9.606;2022-12-18T07:31:13;-2.60;99.90
19930;DHT22;10127;47.780;9.606;2022-12-18T07:33:40;-2.40;99.90
19930;DHT22;10127;47.780;9.606;2022-12-18T07:36:07;-2.30;99.90
19930;DHT22;10127;47.780;9.606;2022-12-18T07:38:33;-2.20;99.90
19930;DHT22;10127;47.780;9.606;2022-12-18T07:41:07;-2.30;99.90
19930;DHT22;10127;47.780;9.606;2022-12-18T07:43:34;-2.20;99.90
19930;DHT22;10127;47.780;9.606;2022-12-18T07:46:00;-2.10;99.90
19930;DHT22;10127;47.780;9.606;2022-12-18T07:48:27;-2.10;99.90
19930;DHT22;10127;47.780;9.606;2022-12-18T07:50:52;-2.10;99.90
19930;DHT22;10127;47.780;9.606;2022-12-18T07:53:18;-2.10;99.90
19930;DHT22;10127;47.780;9.606;2022-12-18T07:55:44;-2.10;99.90
19930;DHT22;10127;47.780;9.606;2022-12-18T07:58:10;-2.20;99.90
19930;DHT22;10127;47.780;9.606;2022-12-18T08:00:35;-2.10;99.90
19930;DHT22;10127;47.780;9.606;2022-12-18T08:03:01;-2.20;99.90
19930;DHT22;10127;47.780;9.606;2022-12-18T08:05:27;-2.20;99.90
19930;DHT22;10127;47.780;9.606;2022-12-18T08:07:53;-2.20;99.90
19930;DHT22;10127;47.780;9.606;2022-12-18T08:10:18;-2.10;99.90
19930;DHT22;10127;47.780;9.606;2022-12-18T08:12:44;-2.10;99.90
19930;DHT22;10127;47.780;9.606;2022-12-18T08:15:10;-2.10;99.90
19930;DHT22;10127;47.780;9.606;2022-12-18T08:17:36;-2.10;99.90
19930;DHT22;10127;47.780;9.606;2022-12-18T08:20:02;-2.10;99.90
19930;DHT22;10127;47.780;9.606;2022-12-18T08:22:27;-1.80;99.90
19930;DHT22;10127;47.780;9.606;2022-12-18T08:24:53;-2.10;99.90
19930;DHT22;10127;47.780;9.606;2022-12-18T08:27:19;-2.10;99.90
19930;DHT22;10127;47.780;9.606;2022-12-18T08:29:45;-2.00;99.90
19930;DHT22;10127;47.780;9.606;2022-12-18T08:32:11;-2.10;99.90
19930;DHT22;10127;47.780;9.606;2022-12-18T08:34:36;-1.90;99.90
19930;DHT22;10127;47.780;9.606;2022-12-18T08:37:02;-1.80;99.90
19930;DHT22;10127;47.780;9.606;2022-12-18T08:39:27;-2.10;99.90
19930;DHT22;10127;47.780;9.606;2022-12-18T08:41:53;-2.30;99.90
19930;DHT22;10127;47.780;9.606;2022-12-18T08:44:57;-2.30;99.90
19930;DHT22;10127;47.780;9.606;2022-12-18T08:47:23;-2.30;99.90
19930;DHT22;10127;47.780;9.606;2022-12-18T08:49:49;-2.10;99.90
19930;DHT22;10127;47.780;9.606;2022-12-18T08:52:14;-1.90;99.90
19930;DHT22;10127;47.780;9.606;2022-12-18T08:54:40;-1.90;99.90
19930;DHT22;10127;47.780;9.606;2022-12-18T08:57:05;-1.70;99.90
19930;DHT22;10127;47.780;9.606;2022-12-18T08:59:32;-1.70;99.90
19930;DHT22;10127;47.780;9.606;2022-12-18T09:01:57;-1.60;99.90
19930;DHT22;10127;47.780;9.606;2022-12-18T09:04:23;-1.40;99.90
19930;DHT22;10127;47.780;9.606;2022-12-18T09:06:48;-1.50;99.90
19930;DHT22;10127;47.780;9.606;2022-12-18T09:09:14;-1.50;99.90
19930;DHT22;10127;47.780;9.606;2022-12-18T09:11:40;-1.70;99.90
19930;DHT22;10127;47.780;9.606;2022-12-18T09:14:05;-1.70;99.90
19930;DHT22;10127;47.780;9.606;2022-12-18T09:16:31;-1.60;99.90
19930;DHT22;10127;47.780;9.606;2022-12-18T09:18:58;-1.30;99.90
19930;DHT22;10127;47.780;9.606;2022-12-18T09:21:30;-1.20;99.90
19930;DHT22;10127;47.780;9.606;2022-12-18T09:23:56;-1.50;99.90
19930;DHT22;10127;47.780;9.606;2022-12-18T09:26:23;-1.40;99.90
19930;DHT22;10127;47.780;9.606;2022-12-18T09:28:49;-1.30;99.90
19930;DHT22;10127;47.780;9.606;2022-12-18T09:31:17;-1.20;99.90
19930;DHT22;10127;47.780;9.606;2022-12-18T09:33:43;-1.10;99.90
19930;DHT22;10127;47.780;9.606;2022-12-18T09:36:12;-1.40;99.90
19930;DHT22;10127;47.780;9.606;2022-12-18T09:38:38;-1.60;99.90
19930;DHT22;10127;47.780;9.606;2022-12-18T09:44:14;-1.60;99.90
19930;DHT22;10127;47.780;9.606;2022-12-18T09:46:46;-1.50;99.90
19930;DHT22;10127;47.780;9.606;2022-12-18T09:49:16;-1.50;99.90
19930;DHT22;10127;47.780;9.606;2022-12-18T09:54:40;-1.40;99.90
19930;DHT22;10127;47.780;9.606;2022-12-18T09:57:06;-1.30;99.90
19930;DHT22;10127;47.780;9.606;2022-12-18T09:59:37;-1.10;99.90
19930;DHT22;10127;47.780;9.606;2022-12-18T10:02:22;-1.00;99.90
19930;DHT22;10127;47.780;9.606;2022-12-18T10:14:03;-1.60;99.90
19930;DHT22;10127;47.780;9.606;2022-12-18T10:18:48;-1.60;99.90
19930;DHT22;10127;47.780;9.606;2022-12-18T10:21:26;-1.50;99.90
19930;DHT22;10127;47.780;9.606;2022-12-18T10:24:08;-1.20;99.90
19930;DHT22;10127;47.780;9.606;2022-12-18T10:26:37;-1.10;99.90
19930;DHT22;10127;47.780;9.606;2022-12-18T10:29:10;-1.20;99.90
19930;DHT22;10127;47.780;9.606;2022-12-18T10:31:37;-1.10;99.90
19930;DHT22;10127;47.780;9.606;2022-12-18T10:34:02;-1.00;99.90
19930;DHT22;10127;47.780;9.606;2022-12-18T10:36:29;-1.00;99.90
19930;DHT22;10127;47.780;9.606;2022-12-18T10:39:14;-1.00;99.90
19930;DHT22;10127;47.780;9.606;2022-12-18T10:41:40;-0.70;99.90
19930;DHT22;10127;47.780;9.606;2022-12-18T10:44:19;-0.60;99.90
19930;DHT22;10127;47.780;9.606;2022-12-18T10:46:48;-0.40;99.90
19930;DHT22;10127;47.780;9.606;2022-12-18T10:49:27;-0.40;99.90
19930;DHT22;10127;47.780;9.606;2022-12-18T10:52:20;-0.50;99.90
19930;DHT22;10127;47.780;9.606;2022-12-18T10:55:00;-0.50;99.90
19930;DHT22;10127;47.780;9.606;2022-12-18T10:57:39;-0.60;99.90
19930;DHT22;10127;47.780;9.606;2022-12-18T11:00:27;-0.40;99.90
19930;DHT22;10127;47.780;9.606;2022-12-18T11:02:54;-0.50;99.90
19930;DHT22;10127;47.780;9.606;2022-12-18T11:05:29;-0.40;99.90
19930;DHT22;10127;47.780;9.606;2022-12-18T11:07:56;-0.20;99.90
19930;DHT22;10127;47.780;9.606;2022-12-18T11:10:28;0.00;99.90
19930;DHT22;10127;47.780;9.606;2022-12-18T11:12:55;0.00;99.90
19930;DHT22;10127;47.780;9.606;2022-12-18T11:15:25;0.10;99.90
19930;DHT22;10127;47.780;9.606;2022-12-18T11:17:52;-0.20;99.90
19930;DHT22;10127;47.780;9.606;2022-12-18T11:20:31;-0.50;99.90
19930;DHT22;10127;47.780;9.606;2022-12-18T11:23:05;-0.40;99.90
19930;DHT22;10127;47.780;9.606;2022-12-18T11:25:32;-0.20;99.90
19930;DHT22;10127;47.780;9.606;2022-12-18T11:28:04;-0.10;99.90
19930;DHT22;10127;47.780;9.606;2022-12-18T11:30:37;0.00;99.90
19930;DHT22;10127;47.780;9.606;2022-12-18T11:38:28;0.10;99.90
19930;DHT22;10127;47.780;9.606;2022-12-18T11:41:19;0.10;99.90
19930;DHT22;10127;47.780;9.606;2022-12-18T11:44:18;-0.20;99.90
19930;DHT22;10127;47.780;9.606;2022-12-18T11:46:53;-0.30;99.90
19930;DHT22;10127;47.780;9.606;2022-12-18T11:49:28;-0.40;99.90
19930;DHT22;10127;47.780;9.606;2022-12-18T11:52:50;-0.40;99.90
19930;DHT22;10127;47.780;9.606;2022-12-18T11:55:14;-0.30;99.90
19930;DHT22;10127;47.780;9.606;2022-12-18T12:00:26;-0.50;99.90
19930;DHT22;10127;47.780;9.606;2022-12-18T12:11:21;-0.30;99.90
19930;DHT22;10127;47.780;9.606;2022-12-18T12:22:28;-0.60;99.90
19930;DHT22;10127;47.780;9.606;2022-12-18T12:30:19;-0.50;99.90
19930;DHT22;10127;47.780;9.606;2022-12-18T12:38:27;-0.60;99.90
19930;DHT22;10127;47.780;9.606;2022-12-18T12:40:56;-0.50;99.90
19930;DHT22;10127;47.780;9.606;2022-12-18T12:43:41;-0.50;99.90
19930;DHT22;10127;47.780;9.606;2022-12-18T12:46:13;-0.40;99.90
19930;DHT22;10127;47.780;9.606;2022-12-18T12:48:52;-0.60;99.90
19930;DHT22;10127;47.780;9.606;2022-12-18T12:51:25;-0.50;99.90
19930;DHT22;10127;47.780;9.606;2022-12-18T12:53:52;-0.30;99.90
19930;DHT22;10127;47.780;9.606;2022-12-18T12:56:20;-0.40;99.90
19930;DHT22;10127;47.780;9.606;2022-12-18T13:09:34;0.10;99.90
19930;DHT22;10127;47.780;9.606;2022-12-18T13:12:07;0.30;99.90
19930;DHT22;10127;47.780;9.606;2022-12-18T13:14:53;0.50;99.90
19930;DHT22;10127;47.780;9.606;2022-12-18T13:19:56;0.50;99.90
19930;DHT22;10127;47.780;9.606;2022-12-18T13:22:47;0.20;99.90
19930;DHT22;10127;47.780;9.606;2022-12-18T13:25:34;0.20;99.90
19930;DHT22;10127;47.780;9.606;2022-12-18T13:28:12;0.50;99.90
19930;DHT22;10127;47.780;9.606;2022-12-18T13:38:38;-0.40;99.90
19930;DHT22;10127;47.780;9.606;2022-12-18T13:48:51;0.00;99.90
19930;DHT22;10127;47.780;9.606;2022-12-18T13:51:17;0.20;99.90
19930;DHT22;10127;47.780;9.606;2022-12-18T13:53:51;0.20;99.90
19930;DHT22;10127;47.780;9.606;2022-12-18T13:56:20;0.30;99.90
19930;DHT22;10127;47.780;9.606;2022-12-18T13:59:12;-0.10;99.90
19930;DHT22;10127;47.780;9.606;2022-12-18T14:01:32;-0.10;99.90
19930;DHT22;10127;47.780;9.606;2022-12-18T14:04:12;0.10;99.90
19930;DHT22;10127;47.780;9.606;2022-12-18T14:06:38;0.20;99.90
19930;DHT22;10127;47.780;9.606;2022-12-18T14:09:04;0.20;99.90
19930;DHT22;10127;47.780;9.606;2022-12-18T14:11:30;0.20;99.90
19930;DHT22;10127;47.780;9.606;2022-12-18T14:13:56;0.20;99.90
19930;DHT22;10127;47.780;9.606;2022-12-18T14:16:22;0.20;99.90
19930;DHT22;10127;47.780;9.606;2022-12-18T14:21:27;-0.40;99.90
19930;DHT22;10127;47.780;9.606;2022-12-18T14:24:20;-0.40;99.90
19930;DHT22;10127;47.780;9.606;2022-12-18T14:26:47;-0.40;99.90
19930;DHT22;10127;47.780;9.606;2022-12-18T14:29:21;-0.70;99.90
19930;DHT22;10127;47.780;9.606;2022-12-18T14:32:08;-0.80;99.90
19930;DHT22;10127;47.780;9.606;2022-12-18T14:34:34;-0.70;99.90
19930;DHT22;10127;47.780;9.606;2022-12-18T14:37:00;-0.80;99.90
19930;DHT22;10127;47.780;9.606;2022-12-18T14:39:25;-0.80;99.90
19930;DHT22;10127;47.780;9.606;2022-12-18T14:41:52;-0.90;99.90
19930;DHT22;10127;47.780;9.606;2022-12-18T14:44:18;-0.70;99.90
19930;DHT22;10127;47.780;9.606;2022-12-18T14:46:47;-0.50;99.90
19930;DHT22;10127;47.780;9.606;2022-12-18T14:49:29;-0.40;99.90
19930;DHT22;10127;47.780;9.606;2022-12-18T14:51:57;-0.50;99.90
19930;DHT22;10127;47.780;9.606;2022-12-18T14:54:25;-0.80;99.90
19930;DHT22;10127;47.780;9.606;2022-12-18T14:59:24;-0.70;99.90
19930;DHT22;10127;47.780;9.606;2022-12-18T15:04:29;-0.60;99.90
19930;DHT22;10127;47.780;9.606;2022-12-18T15:07:05;-0.60;99.90
19930;DHT22;10127;47.780;9.606;2022-12-18T15:09:32;-0.70;99.90
19930;DHT22;10127;47.780;9.606;2022-12-18T15:11:59;-1.00;99.90
19930;DHT22;10127;47.780;9.606;2022-12-18T15:14:32;-1.10;99.90
19930;DHT22;10127;47.780;9.606;2022-12-18T15:17:00;-1.10;99.90
19930;DHT22;10127;47.780;9.606;2022-12-18T15:19:39;-1.10;99.90
19930;DHT22;10127;47.780;9.606;2022-12-18T15:22:21;-1.10;99.90
19930;DHT22;10127;47.780;9.606;2022-12-18T15:24:49;-1.10;99.90
19930;DHT22;10127;47.780;9.606;2022-12-18T15:27:35;-1.20;99.90
19930;DHT22;10127;47.780;9.606;2022-12-18T15:32:36;-1.40;99.90
19930;DHT22;10127;47.780;9.606;2022-12-18T15:37:35;-1.30;99.90
19930;DHT22;10127;47.780;9.606;2022-12-18T15:40:00;-1.20;99.90
19930;DHT22;10127;47.780;9.606;2022-12-18T15:42:28;-0.90;99.90
19930;DHT22;10127;47.780;9.606;2022-12-18T15:45:13;-1.00;99.90
19930;DHT22;10127;47.780;9.606;2022-12-18T15:47:39;-1.10;99.90
19930;DHT22;10127;47.780;9.606;2022-12-18T15:50:07;-1.30;99.90
19930;DHT22;10127;47.780;9.606;2022-12-18T15:52:42;-1.30;99.90
19930;DHT22;10127;47.780;9.606;2022-12-18T15:55:13;-1.40;99.90
19930;DHT22;10127;47.780;9.606;2022-12-18T15:57:58;-1.40;99.90
19930;DHT22;10127;47.780;9.606;2022-12-18T16:00:24;-1.50;99.90
19930;DHT22;10127;47.780;9.606;2022-12-18T16:02:49;-1.50;99.90
19930;DHT22;10127;47.780;9.606;2022-12-18T16:05:16;-1.50;99.90
19930;DHT22;10127;47.780;9.606;2022-12-18T16:07:43;-1.30;99.90
19930;DHT22;10127;47.780;9.606;2022-12-18T16:10:09;-1.20;99.90
19930;DHT22;10127;47.780;9.606;2022-12-18T16:12:35;-1.10;99.90
19930;DHT22;10127;47.780;9.606;2022-12-18T16:15:01;-0.90;99.90
19930;DHT22;10127;47.780;9.606;2022-12-18T16:17:27;-0.70;99.90
19930;DHT22;10127;47.780;9.606;2022-12-18T16:19:52;-0.80;99.90
19930;DHT22;10127;47.780;9.606;2022-12-18T16:22:27;-1.10;99.90
19930;DHT22;10127;47.780;9.606;2022-12-18T16:24:54;-1.00;99.90
19930;DHT22;10127;47.780;9.606;2022-12-18T16:27:21;-1.10;99.90
19930;DHT22;10127;47.780;9.606;2022-12-18T16:29:47;-0.70;99.90
19930;DHT22;10127;47.780;9.606;2022-12-18T16:32:20;-0.80;99.90
19930;DHT22;10127;47.780;9.606;2022-12-18T16:34:47;-1.10;99.90
19930;DHT22;10127;47.780;9.606;2022-12-18T16:37:14;-1.10;99.90
19930;DHT22;10127;47.780;9.606;2022-12-18T16:39:40;-1.10;99.90
19930;DHT22;10127;47.780;9.606;2022-12-18T16:42:11;-1.30;99.90
19930;DHT22;10127;47.780;9.606;2022-12-18T16:44:41;-1.30;99.90
19930;DHT22;10127;47.780;9.606;2022-12-18T16:47:07;-1.40;99.90
19930;DHT22;10127;47.780;9.606;2022-12-18T16:49:33;-1.50;99.90
19930;DHT22;10127;47.780;9.606;2022-12-18T16:51:59;-1.50;99.90
19930;DHT22;10127;47.780;9.606;2022-12-18T16:54:24;-1.70;99.90
19930;DHT22;10127;47.780;9.606;2022-12-18T16:56:51;-1.70;99.90
19930;DHT22;10127;47.780;9.606;2022-12-18T16:59:17;-1.80;99.90
19930;DHT22;10127;47.780;9.606;2022-12-18T17:01:42;-1.90;99.90
19930;DHT22;10127;47.780;9.606;2022-12-18T17:04:08;-2.00;99.90
19930;DHT22;10127;47.780;9.606;2022-12-18T17:06:39;-2.00;99.90
19930;DHT22;10127;47.780;9.606;2022-12-18T17:09:07;-1.90;99.90
19930;DHT22;10127;47.780;9.606;2022-12-18T17:11:34;-1.70;99.90
19930;DHT22;10127;47.780;9.606;2022-12-18T17:14:06;-1.70;99.90
19930;DHT22;10127;47.780;9.606;2022-12-18T17:16:32;-1.80;99.90
19930;DHT22;10127;47.780;9.606;2022-12-18T17:18:58;-1.80;99.90
19930;DHT22;10127;47.780;9.606;2022-12-18T17:21:23;-1.90;99.90
19930;DHT22;10127;47.780;9.606;2022-12-18T17:23:49;-1.90;99.90
19930;DHT22;10127;47.780;9.606;2022-12-18T17:26:14;-1.80;99.90
19930;DHT22;10127;47.780;9.606;2022-12-18T17:28:40;-1.80;99.90
19930;DHT22;10127;47.780;9.606;2022-12-18T17:31:15;-1.90;99.90
19930;DHT22;10127;47.780;9.606;2022-12-18T17:33:41;-1.90;99.90
19930;DHT22;10127;47.780;9.606;2022-12-18T17:36:08;-2.00;99.90
19930;DHT22;10127;47.780;9.606;2022-12-18T17:38:34;-2.00;99.90
19930;DHT22;10127;47.780;9.606;2022-12-18T17:41:05;-2.00;99.90
19930;DHT22;10127;47.780;9.606;2022-12-18T17:43:31;-1.90;99.90
19930;DHT22;10127;47.780;9.606;2022-12-18T17:46:04;-1.70;99.90
19930;DHT22;10127;47.780;9.606;2022-12-18T17:48:32;-1.50;99.90
19930;DHT22;10127;47.780;9.606;2022-12-18T17:51:02;-1.30;99.90
19930;DHT22;10127;47.780;9.606;2022-12-18T17:53:28;-1.30;99.90
19930;DHT22;10127;47.780;9.606;2022-12-18T17:55:55;-1.40;99.90
19930;DHT22;10127;47.780;9.606;2022-12-18T17:58:21;-1.50;99.90
19930;DHT22;10127;47.780;9.606;2022-12-18T18:00:47;-1.40;99.90